createdAt,value
2022-08-03T00:01:28.091Z,6.40
2022-08-03T00:03:55.175Z,6.30
2022-08-03T00:06:22.615Z,6.60
2022-08-03T00:08:49.766Z,8.00
2022-08-03T00:11:17.121Z,6.80
2022-08-03T00:13:44.116Z,6.50
2022-08-03T00:16:11.180Z,6.80
2022-08-03T00:18:38.544Z,6.70
2022-08-03T00:21:05.511Z,7.00
2022-08-03T00:23:51.293Z,6.90
2022-08-03T00:26:21.632Z,6.90
2022-08-03T00:28:50.091Z,6.90
2022-08-03T00:31:17.950Z,7.50
2022-08-03T00:34:04.422Z,7.50
2022-08-03T00:36:31.437Z,7.40
2022-08-03T00:38:58.483Z,7.20
2022-08-03T00:41:25.426Z,7.70
2022-08-03T00:43:52.474Z,7.60
2022-08-03T00:46:22.113Z,7.30
2022-08-03T00:48:52.576Z,6.90
2022-08-03T00:51:23.489Z,7.00
2022-08-03T00:53:50.670Z,7.30
2022-08-03T00:56:18.123Z,7.10
2022-08-03T00:58:46.391Z,8.00
2022-08-03T01:01:15.919Z,7.00
2022-08-03T01:03:44.672Z,7.30
2022-08-03T01:06:38.177Z,6.80
2022-08-03T01:10:09.268Z,7.10
2022-08-03T01:12:48.383Z,7.50
2022-08-03T01:15:33.441Z,7.30
2022-08-03T01:18:14.325Z,6.90
2022-08-03T01:20:49.236Z,7.20
2022-08-03T01:23:37.874Z,7.10
2022-08-03T01:26:16.799Z,7.00
2022-08-03T01:29:17.522Z,6.90
2022-08-03T01:32:59.007Z,6.20
2022-08-03T01:34:54.808Z,6.50
2022-08-03T01:37:34.734Z,6.60
2022-08-03T01:40:08.799Z,6.70
2022-08-03T01:42:38.013Z,6.10
2022-08-03T01:45:06.985Z,5.10
2022-08-03T01:47:34.661Z,5.50
2022-08-03T01:50:03.642Z,5.40
2022-08-03T01:52:32.434Z,5.90
2022-08-03T01:55:02.588Z,5.70
2022-08-03T01:57:30.785Z,5.60
2022-08-03T02:00:00.739Z,6.40
2022-08-03T02:02:32.615Z,5.90
2022-08-03T02:05:05.447Z,5.70
2022-08-03T02:07:41.330Z,6.10
2022-08-03T02:10:11.191Z,6.10
2022-08-03T02:12:39.596Z,6.60
2022-08-03T02:15:07.977Z,6.90
2022-08-03T02:17:39.486Z,7.00
2022-08-03T02:20:11.744Z,7.30
2022-08-03T02:22:43.357Z,6.00
2022-08-03T02:25:13.271Z,7.70
2022-08-03T02:27:50.969Z,6.70
2022-08-03T02:30:20.271Z,6.50
2022-08-03T02:32:56.739Z,6.60
2022-08-03T02:35:28.234Z,6.70
2022-08-03T02:38:04.763Z,6.70
2022-08-03T02:40:33.068Z,7.10
2022-08-03T02:43:05.259Z,7.10
2022-08-03T02:45:36.358Z,7.40
2022-08-03T02:48:06.450Z,7.10
2022-08-03T02:50:34.695Z,7.60
2022-08-03T02:53:03.648Z,7.80
2022-08-03T02:55:34.617Z,7.50
2022-08-03T02:58:03.472Z,7.60
2022-08-03T03:00:32.807Z,7.80
2022-08-03T03:03:03.979Z,7.40
2022-08-03T03:05:56.453Z,7.60
2022-08-03T03:08:25.922Z,8.00
2022-08-03T03:10:58.930Z,7.40
2022-08-03T03:13:31.182Z,8.90
2022-08-03T03:16:02.156Z,8.50
2022-08-03T03:18:31.444Z,7.40
2022-08-03T03:21:01.134Z,8.30
2022-08-03T03:23:30.148Z,8.80
2022-08-03T03:25:58.448Z,8.00
2022-08-03T03:28:26.267Z,8.10
2022-08-03T03:30:53.848Z,8.80
2022-08-03T03:33:24.407Z,8.00
2022-08-03T03:35:52.247Z,7.40
2022-08-03T03:38:20.098Z,7.50
2022-08-03T03:40:47.951Z,7.40
2022-08-03T03:43:14.890Z,7.80
2022-08-03T03:45:42.694Z,8.20
2022-08-03T03:48:10.490Z,8.00
2022-08-03T03:50:40.438Z,7.70
2022-08-03T03:53:11.832Z,7.00
2022-08-03T03:56:01.550Z,7.20
2022-08-03T03:58:27.767Z,7.50
2022-08-03T04:00:55.029Z,7.30
2022-08-03T04:03:22.065Z,7.90
2022-08-03T04:06:08.467Z,7.70
2022-08-03T04:08:54.671Z,7.80
2022-08-03T04:11:36.122Z,7.70
2022-08-03T04:14:05.901Z,7.90
2022-08-03T04:16:43.153Z,7.50
2022-08-03T04:19:21.184Z,7.20
2022-08-03T04:21:57.189Z,8.30
2022-08-03T04:24:39.086Z,7.80
2022-08-03T04:27:09.927Z,7.80
2022-08-03T04:29:48.386Z,8.00
2022-08-03T04:32:17.454Z,8.60
2022-08-03T04:34:44.818Z,9.00
2022-08-03T04:37:18.383Z,8.50
2022-08-03T04:39:49.401Z,8.40
2022-08-03T04:42:18.561Z,8.40
2022-08-03T04:44:47.243Z,8.50
2022-08-03T04:47:15.531Z,7.50
2022-08-03T04:49:43.217Z,7.60
2022-08-03T04:52:11.015Z,6.90
2022-08-03T04:54:50.675Z,7.60
2022-08-03T04:57:23.143Z,7.60
2022-08-03T04:59:56.844Z,7.50
2022-08-03T05:02:30.570Z,7.20
2022-08-03T05:04:58.242Z,7.80
2022-08-03T05:07:25.458Z,7.70
2022-08-03T05:10:01.357Z,7.90
2022-08-03T05:12:32.710Z,7.60
2022-08-03T05:15:01.333Z,7.40
2022-08-03T05:17:28.496Z,7.10
2022-08-03T05:19:55.836Z,8.30
2022-08-03T05:22:23.166Z,7.50
2022-08-03T05:24:50.095Z,6.80
2022-08-03T05:27:18.867Z,6.60
2022-08-03T05:29:47.342Z,7.50
2022-08-03T05:32:15.517Z,7.10
2022-08-03T05:34:43.565Z,6.90
2022-08-03T05:37:11.188Z,7.20
2022-08-03T05:39:38.046Z,6.60
2022-08-03T05:42:05.023Z,6.70
2022-08-03T05:44:32.018Z,6.40
2022-08-03T05:46:59.457Z,6.90
2022-08-03T05:49:26.467Z,7.00
2022-08-03T05:52:00.261Z,6.00
2022-08-03T05:54:55.389Z,7.00
2022-08-03T05:57:25.354Z,7.00
2022-08-03T05:59:58.162Z,6.40
2022-08-03T06:02:28.602Z,6.90
2022-08-03T06:04:55.487Z,6.70
2022-08-03T06:07:22.455Z,6.60
2022-08-03T06:10:34.910Z,6.10
2022-08-03T06:12:36.819Z,7.00
2022-08-03T06:15:04.957Z,7.10
2022-08-03T06:17:37.262Z,6.80
2022-08-03T06:20:05.999Z,6.30
2022-08-03T06:22:33.122Z,6.80
2022-08-03T06:25:04.923Z,6.60
2022-08-03T06:27:36.629Z,6.60
2022-08-03T06:30:06.847Z,6.30
2022-08-03T06:32:34.495Z,7.10
2022-08-03T06:35:01.383Z,6.00
2022-08-03T06:37:28.705Z,6.00
2022-08-03T06:39:55.582Z,5.90
2022-08-03T06:42:22.680Z,5.90
2022-08-03T06:44:50.793Z,5.40
2022-08-03T06:47:17.620Z,6.00
2022-08-03T06:49:44.689Z,5.30
2022-08-03T06:52:37.807Z,5.00
2022-08-03T06:55:07.027Z,4.40
2022-08-03T06:57:34.072Z,4.50
2022-08-03T07:00:10.656Z,4.30
2022-08-03T07:02:39.422Z,3.90
2022-08-03T07:05:08.762Z,4.00
2022-08-03T07:07:36.234Z,4.00
2022-08-03T07:10:05.491Z,4.30
2022-08-03T07:12:34.089Z,4.20
2022-08-03T07:15:03.639Z,4.00
2022-08-03T07:17:36.368Z,5.30
2022-08-03T07:22:34.935Z,4.60
2022-08-03T07:25:02.195Z,5.50
2022-08-03T07:27:29.771Z,3.50
2022-08-03T07:29:58.143Z,4.50
2022-08-03T07:32:27.877Z,4.10
2022-08-03T07:34:59.949Z,3.80
2022-08-03T07:39:54.786Z,4.00
2022-08-03T07:42:23.647Z,4.50
2022-08-03T07:44:50.593Z,3.90
2022-08-03T07:47:24.995Z,4.70
2022-08-03T07:49:52.164Z,3.70
2022-08-03T07:52:37.806Z,3.50
2022-08-03T07:55:06.838Z,3.30
2022-08-03T07:57:34.747Z,3.30
2022-08-03T08:00:04.899Z,3.50
2022-08-03T08:02:41.812Z,3.60
2022-08-03T08:05:10.501Z,4.30
2022-08-03T08:07:38.932Z,3.10
2022-08-03T08:10:09.335Z,4.30
2022-08-03T08:12:38.459Z,7.60
2022-08-03T08:15:07.971Z,4.10
2022-08-03T08:18:02.025Z,4.60
2022-08-03T08:20:36.550Z,4.40
2022-08-03T08:23:19.973Z,4.10
2022-08-03T08:25:55.702Z,4.40
2022-08-03T08:28:32.765Z,4.80
2022-08-03T08:31:01.724Z,5.30
2022-08-03T08:33:42.231Z,4.30
2022-08-03T08:36:15.999Z,4.60
2022-08-03T08:38:44.761Z,4.40
2022-08-03T08:41:14.500Z,4.10
2022-08-03T08:43:42.731Z,4.50
2022-08-03T08:46:23.434Z,4.30
2022-08-03T08:48:53.338Z,3.80
2022-08-03T08:51:21.775Z,4.10
2022-08-03T08:53:53.341Z,3.20
2022-08-03T08:56:24.812Z,3.90
2022-08-03T08:59:02.396Z,4.30
2022-08-03T09:01:30.711Z,4.20
2022-08-03T09:03:57.646Z,3.80
2022-08-03T09:06:24.679Z,4.00
2022-08-03T09:08:51.850Z,3.00
2022-08-03T09:11:53.721Z,2.30
2022-08-03T09:14:11.235Z,2.10
2022-08-03T09:17:03.699Z,2.50
2022-08-03T09:19:32.781Z,1.90
2022-08-03T09:22:13.619Z,2.10
2022-08-03T09:25:26.607Z,2.30
2022-08-03T09:27:53.689Z,1.90
2022-08-03T09:30:33.821Z,2.60
2022-08-03T09:33:05.790Z,2.20
2022-08-03T09:35:53.118Z,2.30
2022-08-03T09:38:28.104Z,2.10
2022-08-03T09:40:59.984Z,2.30
2022-08-03T09:43:28.369Z,2.20
2022-08-03T09:46:06.932Z,2.20
2022-08-03T09:48:35.191Z,2.20
2022-08-03T09:51:12.779Z,2.30
2022-08-03T09:53:57.069Z,2.10
2022-08-03T09:56:45.503Z,2.10
2022-08-03T09:59:27.296Z,2.40
2022-08-03T10:01:56.384Z,2.20
2022-08-03T10:04:24.543Z,2.10
2022-08-03T10:07:06.495Z,2.20
2022-08-03T10:09:33.926Z,2.30
2022-08-03T10:12:13.563Z,2.00
2022-08-03T10:14:44.706Z,1.90
2022-08-03T10:17:12.532Z,2.50
2022-08-03T10:19:43.545Z,2.30
2022-08-03T10:22:26.717Z,2.60
2022-08-03T10:25:02.128Z,2.50
2022-08-03T10:27:36.642Z,2.10
2022-08-03T10:30:08.688Z,1.90
2022-08-03T10:32:57.042Z,2.10
2022-08-03T10:35:24.995Z,1.80
2022-08-03T10:37:58.942Z,2.50
2022-08-03T10:40:48.285Z,2.00
2022-08-03T10:44:12.874Z,2.30
2022-08-03T10:46:44.997Z,1.60
2022-08-03T10:52:02.646Z,1.50
2022-08-03T10:54:57.883Z,2.00
2022-08-03T10:57:58.887Z,2.00
2022-08-03T11:00:29.832Z,2.10
2022-08-03T11:03:15.663Z,1.70
2022-08-03T11:05:53.891Z,2.00
2022-08-03T11:08:36.643Z,1.90
2022-08-03T11:11:18.701Z,2.10
2022-08-03T11:14:04.083Z,1.90
2022-08-03T11:17:02.461Z,2.00
2022-08-03T11:19:57.432Z,1.90
2022-08-03T11:22:45.430Z,1.70
2022-08-03T11:25:53.893Z,1.90
2022-08-03T11:28:38.592Z,1.70
2022-08-03T11:31:48.609Z,1.70
2022-08-03T11:34:14.681Z,1.60
2022-08-03T11:37:27.266Z,1.50
2022-08-03T11:39:57.046Z,1.70
2022-08-03T11:42:24.051Z,1.90
2022-08-03T11:44:51.912Z,2.40
2022-08-03T11:47:21.372Z,1.60
2022-08-03T11:49:50.373Z,1.70
2022-08-03T11:52:18.894Z,1.50
2022-08-03T11:54:46.352Z,2.90
2022-08-03T11:59:02.706Z,1.90
2022-08-03T12:00:28.884Z,1.70
2022-08-03T12:03:13.835Z,1.70
2022-08-03T12:05:51.732Z,1.60
2022-08-03T12:08:28.127Z,1.70
2022-08-03T12:10:57.323Z,1.80
2022-08-03T12:14:44.892Z,1.80
2022-08-03T12:16:22.474Z,1.80
2022-08-03T12:19:01.326Z,1.60
2022-08-03T12:21:29.317Z,1.50
2022-08-03T12:24:02.272Z,1.90
2022-08-03T12:26:43.144Z,1.60
2022-08-03T12:29:21.209Z,1.80
2022-08-03T12:31:48.974Z,1.50
2022-08-03T12:34:15.920Z,1.40
2022-08-03T12:36:56.385Z,1.70
2022-08-03T12:39:27.324Z,1.80
2022-08-03T12:41:56.299Z,1.40
2022-08-03T12:44:35.542Z,1.80
2022-08-03T12:47:06.286Z,1.70
2022-08-03T12:49:48.388Z,2.10
2022-08-03T12:52:17.626Z,2.40
2022-08-03T12:54:59.474Z,1.70
2022-08-03T12:57:42.435Z,1.80
2022-08-03T13:00:21.742Z,1.60
2022-08-03T13:05:55.161Z,1.90
2022-08-03T13:08:24.813Z,1.60
2022-08-03T13:10:52.227Z,2.20
2022-08-03T13:13:39.127Z,2.10
2022-08-03T13:16:17.220Z,2.50
2022-08-03T13:18:46.648Z,1.60
2022-08-03T13:21:20.203Z,1.80
2022-08-03T13:23:47.713Z,1.70
2022-08-03T13:26:14.864Z,2.40
2022-08-03T13:28:41.912Z,2.40
2022-08-03T13:31:08.822Z,1.80
2022-08-03T13:33:36.021Z,1.80
2022-08-03T13:36:03.139Z,1.90
2022-08-03T13:38:30.004Z,2.40
2022-08-03T13:41:00.371Z,2.00
2022-08-03T13:43:31.920Z,2.10
2022-08-03T13:45:58.842Z,1.80
2022-08-03T13:48:37.115Z,1.80
2022-08-03T13:51:11.753Z,2.10
2022-08-03T13:53:51.847Z,1.60
2022-08-03T13:56:18.864Z,1.50
2022-08-03T13:58:45.915Z,1.50
2022-08-03T14:01:13.121Z,1.90
2022-08-03T14:03:40.218Z,1.60
2022-08-03T14:06:07.778Z,1.50
2022-08-03T14:08:35.236Z,2.00
2022-08-03T14:11:03.422Z,1.70
2022-08-03T14:13:30.358Z,1.40
2022-08-03T14:15:57.406Z,1.50
2022-08-03T14:18:28.346Z,1.80
2022-08-03T14:21:05.520Z,2.20
2022-08-03T14:23:36.812Z,1.60
2022-08-03T14:26:06.039Z,1.60
2022-08-03T14:28:33.539Z,1.90
2022-08-03T14:31:01.610Z,1.90
2022-08-03T14:33:28.764Z,1.50
2022-08-03T14:35:56.119Z,1.70
2022-08-03T14:38:23.984Z,1.90
2022-08-03T14:40:51.548Z,1.60
2022-08-03T14:43:20.745Z,1.60
2022-08-03T14:45:51.763Z,1.80
2022-08-03T14:50:33.382Z,1.80
2022-08-03T14:51:08.728Z,1.40
2022-08-03T14:53:35.770Z,1.80
2022-08-03T14:56:07.808Z,1.70
2022-08-03T14:58:37.584Z,1.90
2022-08-03T15:02:01.749Z,1.80
2022-08-03T15:03:51.508Z,1.90
2022-08-03T15:06:18.558Z,1.80
2022-08-03T15:08:55.506Z,1.90
2022-08-03T15:11:32.658Z,1.90
2022-08-03T15:13:59.580Z,1.80
2022-08-03T15:16:29.843Z,1.70
2022-08-03T15:18:57.657Z,1.70
2022-08-03T15:21:46.560Z,1.60
2022-08-03T15:24:11.517Z,1.80
2022-08-03T15:26:41.542Z,2.00
2022-08-03T15:29:08.995Z,1.70
2022-08-03T15:31:56.010Z,1.70
2022-08-03T15:34:23.060Z,1.60
2022-08-03T15:36:50.006Z,1.50
2022-08-03T15:39:17.464Z,1.60
2022-08-03T15:41:44.715Z,1.70
2022-08-03T15:44:11.866Z,1.80
2022-08-03T15:46:39.222Z,1.70
2022-08-03T15:49:06.272Z,1.90
2022-08-03T15:51:33.250Z,1.50
2022-08-03T15:54:00.165Z,1.70
2022-08-03T15:56:27.168Z,1.70
2022-08-03T15:59:04.957Z,1.60
2022-08-03T16:01:41.570Z,1.70
2022-08-03T16:04:08.836Z,2.00
2022-08-03T16:06:36.549Z,1.60
2022-08-03T16:09:22.970Z,2.10
2022-08-03T16:11:51.382Z,1.60
2022-08-03T16:14:34.839Z,1.90
2022-08-03T16:17:05.347Z,1.50
2022-08-03T16:19:32.700Z,2.30
2022-08-03T16:22:00.868Z,1.80
2022-08-03T16:24:28.364Z,1.90
2022-08-03T16:26:56.514Z,1.50
2022-08-03T16:29:24.025Z,1.50
2022-08-03T16:31:52.697Z,1.70
2022-08-03T16:34:20.729Z,1.60
2022-08-03T16:36:47.908Z,1.50
2022-08-03T16:39:15.143Z,1.80
2022-08-03T16:41:54.208Z,1.50
2022-08-03T16:44:30.592Z,1.40
2022-08-03T16:46:58.973Z,1.50
2022-08-03T16:49:54.392Z,1.80
2022-08-03T16:52:13.486Z,1.90
2022-08-03T16:54:40.632Z,1.90
2022-08-03T16:57:08.657Z,1.90
2022-08-03T16:59:36.558Z,1.70
2022-08-03T17:02:09.900Z,1.80
2022-08-03T17:04:47.370Z,2.10
2022-08-03T17:07:14.413Z,2.70
2022-08-03T17:09:42.794Z,2.00
2022-08-03T17:12:12.545Z,1.70
2022-08-03T17:14:40.915Z,1.60
2022-08-03T17:17:47.689Z,1.70
2022-08-03T17:20:19.423Z,1.70
2022-08-03T17:23:15.842Z,2.00
2022-08-03T17:26:02.082Z,1.90
2022-08-03T17:28:48.252Z,1.90
2022-08-03T17:31:23.536Z,2.10
2022-08-03T17:34:00.712Z,1.80
2022-08-03T17:36:47.523Z,1.90
2022-08-03T17:39:17.982Z,2.20
2022-08-03T17:44:46.202Z,1.60
2022-08-03T17:47:14.394Z,1.80
2022-08-03T17:49:46.289Z,2.00
2022-08-03T17:52:34.528Z,2.00
2022-08-03T17:55:56.225Z,1.80
2022-08-03T17:58:18.615Z,2.20
2022-08-03T18:04:02.573Z,1.90
2022-08-03T18:06:56.323Z,2.80
2022-08-03T18:10:06.523Z,3.20
2022-08-03T18:12:28.823Z,2.60
2022-08-03T18:15:07.815Z,2.50
2022-08-03T18:17:58.049Z,2.30
2022-08-03T18:20:34.049Z,2.30
2022-08-03T18:23:10.315Z,2.50
2022-08-03T18:25:45.479Z,2.70
2022-08-03T18:28:18.834Z,2.20
2022-08-03T18:30:53.688Z,2.30
2022-08-03T18:34:19.464Z,2.60
2022-08-03T18:36:29.398Z,3.30
2022-08-03T18:39:00.500Z,2.60
2022-08-03T18:41:32.994Z,2.70
2022-08-03T18:44:08.185Z,2.90
2022-08-03T18:46:48.712Z,2.80
2022-08-03T18:49:30.815Z,2.60
2022-08-03T18:52:17.319Z,2.90
2022-08-03T18:55:02.675Z,3.00
2022-08-03T18:57:48.970Z,2.70
2022-08-03T19:00:24.355Z,3.00
2022-08-03T19:03:06.747Z,3.10
2022-08-03T19:06:02.206Z,2.90
2022-08-03T19:08:48.566Z,2.90
2022-08-03T19:12:13.273Z,3.30
2022-08-03T19:14:45.103Z,3.80
2022-08-03T19:17:13.607Z,3.30
2022-08-03T19:19:45.503Z,3.20
2022-08-03T19:22:16.338Z,3.10
2022-08-03T19:24:46.322Z,3.10
2022-08-03T19:27:16.112Z,2.60
2022-08-03T19:30:14.094Z,2.90
2022-08-03T19:32:49.965Z,2.70
2022-08-03T19:38:04.288Z,3.20
2022-08-03T19:40:33.743Z,2.70
2022-08-03T19:43:33.107Z,3.60
2022-08-03T19:46:20.165Z,2.80
2022-08-03T19:48:58.068Z,3.30
2022-08-03T19:52:01.057Z,3.20
2022-08-03T19:54:29.365Z,3.10
2022-08-03T19:56:58.537Z,3.10
2022-08-03T19:59:26.542Z,3.40
2022-08-03T20:01:53.964Z,2.90
2022-08-03T20:04:21.729Z,2.70
2022-08-03T20:06:49.775Z,3.10
2022-08-03T20:09:19.180Z,3.60
2022-08-03T20:11:48.206Z,3.20
2022-08-03T20:14:20.675Z,3.00
2022-08-03T20:16:53.742Z,3.30
2022-08-03T20:19:21.135Z,3.10
2022-08-03T20:21:50.440Z,3.50
2022-08-03T20:24:28.715Z,3.10
2022-08-03T20:27:03.565Z,3.80
2022-08-03T20:30:07.265Z,3.40
2022-08-03T20:32:34.423Z,3.20
2022-08-03T20:35:01.781Z,3.40
2022-08-03T20:37:30.479Z,3.70
2022-08-03T20:39:58.094Z,3.70
2022-08-03T20:42:25.057Z,3.50
2022-08-03T20:45:06.050Z,3.20
2022-08-03T20:47:35.902Z,3.30
2022-08-03T20:50:04.345Z,3.60
2022-08-03T20:52:49.370Z,2.90
2022-08-03T20:55:18.420Z,3.30
2022-08-03T21:00:34.625Z,3.30
2022-08-03T21:03:01.668Z,3.40
2022-08-03T21:05:31.127Z,3.20
2022-08-03T21:08:15.747Z,3.40
2022-08-03T21:10:44.993Z,3.70
2022-08-03T21:12:54.737Z,2.20
2022-08-03T21:12:56.255Z,2.10
2022-08-03T21:13:09.235Z,3.00
2022-08-03T21:13:12.045Z,3.70
2022-08-03T21:13:38.821Z,2.90
2022-08-03T21:16:14.629Z,2.70
2022-08-03T21:18:51.345Z,3.20
2022-08-03T21:21:22.389Z,3.40
2022-08-03T21:23:54.518Z,3.40
2022-08-03T21:26:25.023Z,3.20
2022-08-03T21:28:55.285Z,3.20
2022-08-03T21:31:25.577Z,3.00
2022-08-03T21:34:00.551Z,3.00
2022-08-03T21:36:34.745Z,3.50
2022-08-03T21:39:04.450Z,3.20
2022-08-03T21:41:32.369Z,3.40
2022-08-03T21:44:00.809Z,3.10
2022-08-03T21:46:34.692Z,3.50
2022-08-03T21:50:07.444Z,3.50
2022-08-03T21:51:58.988Z,3.10
2022-08-03T21:54:41.511Z,3.70
2022-08-03T21:57:23.044Z,3.30
2022-08-03T21:59:56.555Z,3.20
2022-08-03T22:02:30.143Z,3.20
2022-08-03T22:04:59.255Z,3.10
2022-08-03T22:07:29.187Z,3.20
2022-08-03T22:09:59.026Z,3.40
2022-08-03T22:12:30.279Z,3.50
2022-08-03T22:15:01.789Z,3.30
2022-08-03T22:17:54.710Z,3.50
2022-08-03T22:20:22.915Z,4.10
2022-08-03T22:22:55.949Z,3.60
2022-08-03T22:25:33.838Z,4.00
2022-08-03T22:28:06.591Z,3.40
2022-08-03T22:33:11.719Z,3.70
2022-08-03T22:35:47.968Z,3.50
2022-08-03T22:38:17.870Z,3.70
2022-08-03T22:40:47.889Z,3.50
2022-08-03T22:43:15.096Z,4.10
2022-08-03T22:46:09.247Z,3.90
2022-08-03T22:48:40.721Z,3.60
2022-08-03T22:51:09.111Z,4.60
2022-08-03T22:53:36.362Z,3.90
2022-08-03T22:56:04.687Z,3.80
2022-08-03T22:58:31.688Z,4.20
2022-08-03T23:01:06.679Z,4.00
2022-08-03T23:04:01.221Z,3.70
2022-08-03T23:06:40.757Z,4.20
2022-08-03T23:09:12.970Z,4.10
2022-08-03T23:11:46.162Z,4.60
2022-08-03T23:14:18.038Z,3.10
2022-08-03T23:16:47.046Z,3.60
2022-08-03T23:19:25.357Z,3.60
2022-08-03T23:22:02.571Z,3.30
2022-08-03T23:24:35.459Z,3.40
2022-08-03T23:27:07.530Z,3.20
2022-08-03T23:29:41.697Z,3.60
2022-08-03T23:32:09.816Z,3.50
2022-08-03T23:34:58.182Z,3.70
2022-08-03T23:37:26.133Z,3.50
2022-08-03T23:39:56.547Z,3.40
2022-08-03T23:42:23.920Z,3.60
2022-08-03T23:44:55.991Z,3.30
2022-08-03T23:47:24.383Z,3.70
2022-08-03T23:50:12.304Z,3.40
2022-08-03T23:53:09.761Z,3.50
2022-08-03T23:56:10.397Z,3.60
2022-08-03T23:58:52.191Z,3.20
